Allen, Texas
Current Conditions -  °F | °C
As of 6:53 AM on Thursday 23 Oct 2014 (Local Time) from KTKI Reporting Station
Light Rain Light Rain  
Wind Chill: 61°   Ceiling: 7500
Heat Index: 61°   Visibility: 10mi
Dew Point: 55°   Wind: 3mph
Humidity: 81%   Direction: 70°ENE
Pressure: 30.14"   Gusts: NA
Location:  33.1°N, 96.67°W
Report Text: KTKI 231153Z 07003KT 10SM -RA BKN075 OVC090 16/13 A3014 RMK AO2 RAB33 SLP209 P0000 60000 T01610128 10189 20161 53005
Loading
Personal Weather Stations






























Interactive Weather Map
Tropical Storm Tracking
New forecast layout! Learn more

10-Day Weather Forecast

Advertisements
Track Severe Weather on mobile